createdAt,value
2023-04-01T00:01:45.441Z,7.02
2023-04-01T00:04:11.785Z,6.96
2023-04-01T00:06:38.133Z,7.02
2023-04-01T00:09:04.434Z,7.15
2023-04-01T00:11:32.006Z,7.13
2023-04-01T00:13:58.356Z,7.16
2023-04-01T00:16:24.703Z,7.21
2023-04-01T00:18:51.215Z,7.19
2023-04-01T00:21:17.588Z,7.33
2023-04-01T00:23:43.900Z,7.27
2023-04-01T00:26:10.198Z,7.18
2023-04-01T00:28:36.511Z,7.13
2023-04-01T00:31:02.823Z,7.11
2023-04-01T00:33:29.123Z,7.11
2023-04-01T00:35:55.438Z,7.03
2023-04-01T00:38:21.839Z,7.12
2023-04-01T00:40:48.161Z,7.26
2023-04-01T00:43:14.504Z,7.34
2023-04-01T00:45:40.801Z,7.37
2023-04-01T00:48:07.225Z,7.38
2023-04-01T00:50:33.625Z,7.41
2023-04-01T00:52:59.918Z,7.52
2023-04-01T00:55:26.213Z,7.59
2023-04-01T00:57:52.530Z,7.61
2023-04-01T01:00:18.825Z,7.58
2023-04-01T01:02:45.278Z,7.55
2023-04-01T01:05:11.669Z,7.54
2023-04-01T01:07:37.986Z,7.39
2023-04-01T01:10:04.305Z,7.24
2023-04-01T01:12:30.628Z,7.13
2023-04-01T01:14:56.967Z,7.16
2023-04-01T01:17:23.379Z,7.16
2023-04-01T01:19:49.765Z,7.24
2023-04-01T01:22:16.093Z,7.21
2023-04-01T01:24:42.405Z,7.10
2023-04-01T01:27:08.712Z,7.09
2023-04-01T01:29:35.041Z,7.09
2023-04-01T01:32:01.369Z,7.06
2023-04-01T01:34:27.700Z,6.92
2023-04-01T01:36:54.036Z,6.70
2023-04-01T01:39:20.349Z,6.68
2023-04-01T01:41:46.644Z,6.83
2023-04-01T01:44:12.963Z,6.87
2023-04-01T01:46:39.280Z,6.94
2023-04-01T01:49:06.678Z,6.97
2023-04-01T01:51:32.980Z,7.06
2023-04-01T01:53:59.294Z,7.21
2023-04-01T01:56:25.598Z,7.20
2023-04-01T01:58:51.911Z,7.20
2023-04-01T02:01:18.310Z,7.22
2023-04-01T02:03:44.675Z,7.26
2023-04-01T02:06:10.982Z,7.30
2023-04-01T02:08:37.277Z,7.33
2023-04-01T02:11:03.573Z,7.28
2023-04-01T02:13:29.898Z,7.29
2023-04-01T02:15:56.261Z,7.39
2023-04-01T02:18:22.601Z,7.34
2023-04-01T02:20:48.918Z,7.32
2023-04-01T02:23:15.229Z,7.28
2023-04-01T02:25:41.641Z,7.28
2023-04-01T02:28:07.950Z,7.33
2023-04-01T02:30:34.266Z,7.36
2023-04-01T02:33:00.592Z,7.40
2023-04-01T02:35:26.953Z,7.46
2023-04-01T02:37:53.285Z,7.39
2023-04-01T02:40:19.590Z,7.33
2023-04-01T02:42:45.909Z,7.32
2023-04-01T02:45:12.220Z,7.39
2023-04-01T02:47:38.600Z,7.40
2023-04-01T02:50:04.937Z,7.31
2023-04-01T02:52:31.247Z,7.25
2023-04-01T02:54:57.556Z,7.14
2023-04-01T02:57:23.903Z,7.13
2023-04-01T02:59:50.216Z,7.09
2023-04-01T03:02:16.563Z,7.02
2023-04-01T03:04:42.905Z,6.95
2023-04-01T03:07:09.218Z,6.91
2023-04-01T03:09:35.529Z,6.82
2023-04-01T03:12:01.837Z,6.60
2023-04-01T03:14:28.162Z,6.57
2023-04-01T03:16:54.612Z,6.52
2023-04-01T03:19:21.078Z,6.49
2023-04-01T03:21:47.377Z,6.52
2023-04-01T03:24:13.683Z,6.49
2023-04-01T03:26:39.991Z,6.52
2023-04-01T03:29:06.298Z,6.55
2023-04-01T03:31:32.661Z,6.53
2023-04-01T03:33:59.005Z,6.42
2023-04-01T03:36:25.340Z,6.35
2023-04-01T03:38:51.674Z,6.38
2023-04-01T03:41:17.989Z,6.36
2023-04-01T03:43:44.317Z,6.26
2023-04-01T03:46:10.646Z,6.15
2023-04-01T03:48:37.003Z,6.05
2023-04-01T03:51:03.308Z,5.96
2023-04-01T03:53:29.653Z,6.03
2023-04-01T03:55:55.983Z,6.01
2023-04-01T03:58:22.421Z,5.96
2023-04-01T04:00:48.744Z,6.02
2023-04-01T04:03:15.160Z,6.13
2023-04-01T04:05:41.509Z,6.10
2023-04-01T04:08:07.824Z,6.08
2023-04-01T04:10:34.118Z,6.18
2023-04-01T04:13:00.434Z,6.04
2023-04-01T04:15:26.781Z,6.01
2023-04-01T04:17:53.193Z,6.08
2023-04-01T04:20:19.632Z,6.11
2023-04-01T04:22:45.937Z,6.16
2023-04-01T04:25:12.254Z,6.29
2023-04-01T04:27:38.572Z,6.28
2023-04-01T04:30:04.905Z,6.34
2023-04-01T04:32:31.354Z,6.27
2023-04-01T04:34:57.752Z,6.35
2023-04-01T04:37:24.073Z,6.41
2023-04-01T04:39:50.401Z,6.37
2023-04-01T04:42:16.764Z,6.43
2023-04-01T04:44:43.121Z,6.36
2023-04-01T04:47:09.460Z,6.11
2023-04-01T04:49:35.817Z,5.89
2023-04-01T04:52:02.158Z,5.84
2023-04-01T04:54:28.471Z,5.87
2023-04-01T04:56:54.847Z,5.89
2023-04-01T04:59:21.195Z,5.74
2023-04-01T05:01:50.649Z,5.63
2023-04-01T05:04:17.018Z,5.62
2023-04-01T05:06:43.349Z,5.53
2023-04-01T05:09:09.663Z,5.46
2023-04-01T05:11:35.974Z,5.39
2023-04-01T05:14:02.288Z,5.61
2023-04-01T05:16:28.662Z,5.53
2023-04-01T05:18:55.029Z,5.59
2023-04-01T05:21:21.353Z,5.51
2023-04-01T05:23:47.671Z,5.50
2023-04-01T05:26:13.981Z,5.44
2023-04-01T05:28:40.298Z,5.47
2023-04-01T05:31:06.670Z,5.47
2023-04-01T05:33:33.002Z,5.53
2023-04-01T05:35:59.314Z,5.60
2023-04-01T05:38:25.632Z,5.55
2023-04-01T05:40:51.948Z,5.69
2023-04-01T05:43:18.247Z,5.79
2023-04-01T05:45:44.611Z,5.73
2023-04-01T05:48:10.977Z,5.83
2023-04-01T05:50:37.298Z,5.86
2023-04-01T05:53:03.630Z,5.91
2023-04-01T05:55:29.939Z,5.93
2023-04-01T05:57:56.263Z,5.88
2023-04-01T06:00:22.582Z,5.96
2023-04-01T06:02:49.035Z,6.03
2023-04-01T06:05:15.381Z,6.13
2023-04-01T06:07:41.676Z,6.15
2023-04-01T06:10:07.991Z,6.19
2023-04-01T06:12:34.362Z,6.25
2023-04-01T06:15:00.690Z,6.29
2023-04-01T06:17:27.029Z,6.34
2023-04-01T06:19:53.350Z,6.29
2023-04-01T06:22:19.645Z,6.43
2023-04-01T06:24:45.952Z,6.39
2023-04-01T06:27:12.277Z,6.38
2023-04-01T06:29:38.575Z,6.48
2023-04-01T06:32:04.899Z,6.55
2023-04-01T06:34:31.243Z,6.57
2023-04-01T06:36:57.560Z,6.53
2023-04-01T06:39:23.902Z,6.68
2023-04-01T06:41:50.197Z,6.62
2023-04-01T06:44:16.510Z,6.58
2023-04-01T06:46:42.811Z,6.41
2023-04-01T06:49:09.121Z,6.46
2023-04-01T06:51:35.472Z,6.34
2023-04-01T06:54:01.789Z,6.17
2023-04-01T06:56:28.102Z,6.10
2023-04-01T06:58:54.408Z,6.07
2023-04-01T07:01:20.928Z,5.99
2023-04-01T07:03:47.306Z,6.07
2023-04-01T07:06:13.604Z,6.10
2023-04-01T07:08:39.940Z,6.04
2023-04-01T07:11:06.244Z,6.11
2023-04-01T07:13:32.582Z,6.08
2023-04-01T07:15:58.913Z,6.16
2023-04-01T07:18:25.227Z,6.24
2023-04-01T07:20:51.538Z,6.37
2023-04-01T07:23:17.840Z,6.45
2023-04-01T07:25:44.342Z,6.42
2023-04-01T07:28:10.639Z,6.53
2023-04-01T07:30:36.955Z,6.48
2023-04-01T07:33:03.361Z,6.42
2023-04-01T07:35:29.698Z,6.43
2023-04-01T07:37:56.033Z,6.33
2023-04-01T07:40:22.361Z,6.19
2023-04-01T07:42:48.696Z,6.09
2023-04-01T07:45:15.003Z,6.12
2023-04-01T07:47:41.314Z,6.35
2023-04-01T07:50:07.656Z,6.50
2023-04-01T07:52:33.963Z,6.48
2023-04-01T07:55:00.270Z,6.48
2023-04-01T07:57:26.594Z,6.67
2023-04-01T07:59:53.026Z,6.70
2023-04-01T08:02:19.475Z,6.74
2023-04-01T08:04:46.005Z,6.79
2023-04-01T08:07:12.355Z,6.86
2023-04-01T08:09:38.667Z,6.92
2023-04-01T08:12:04.995Z,6.98
2023-04-01T08:14:31.328Z,7.02
2023-04-01T08:16:57.651Z,6.87
2023-04-01T08:19:23.953Z,6.89
2023-04-01T08:21:50.253Z,6.83
2023-04-01T08:24:16.574Z,6.84
2023-04-01T08:26:42.886Z,6.82
2023-04-01T08:29:09.187Z,6.91
2023-04-01T08:31:35.540Z,7.01
2023-04-01T08:34:01.903Z,7.22
2023-04-01T08:36:28.255Z,7.28
2023-04-01T08:38:54.584Z,7.45
2023-04-01T08:41:20.910Z,7.49
2023-04-01T08:43:47.248Z,7.67
2023-04-01T08:46:13.617Z,7.76
2023-04-01T08:48:39.991Z,7.84
2023-04-01T08:51:06.772Z,7.75
2023-04-01T08:53:33.151Z,7.78
2023-04-01T08:55:59.461Z,7.71
2023-04-01T08:58:25.783Z,7.65
2023-04-01T09:00:52.102Z,7.72
2023-04-01T09:03:18.537Z,7.67
2023-04-01T09:05:44.926Z,7.57
2023-04-01T09:08:11.248Z,7.43
2023-04-01T09:10:37.569Z,7.29
2023-04-01T09:13:03.861Z,7.38
2023-04-01T09:15:30.390Z,7.23
2023-04-01T09:17:56.849Z,7.29
2023-04-01T09:20:23.207Z,7.43
2023-04-01T09:22:49.524Z,7.55
2023-04-01T09:25:15.863Z,7.61
2023-04-01T09:27:42.178Z,7.75
2023-04-01T09:30:08.478Z,7.82
2023-04-01T09:32:34.829Z,7.93
2023-04-01T09:35:01.129Z,7.58
2023-04-01T09:37:27.449Z,7.79
2023-04-01T09:39:53.766Z,7.83
2023-04-01T09:42:20.075Z,7.88
2023-04-01T09:44:46.385Z,7.86
2023-04-01T09:47:12.733Z,7.90
2023-04-01T09:49:39.308Z,7.76
2023-04-01T09:52:05.633Z,7.71
2023-04-01T09:54:31.952Z,7.62
2023-04-01T09:56:58.293Z,7.65
2023-04-01T09:59:24.620Z,7.32
2023-04-01T10:01:50.979Z,7.32
2023-04-01T10:04:17.309Z,7.33
2023-04-01T10:06:43.613Z,7.08
2023-04-01T10:09:09.944Z,7.19
2023-04-01T10:11:36.259Z,6.83
2023-04-01T10:14:02.615Z,6.65
2023-04-01T10:16:28.964Z,6.78
2023-04-01T10:18:55.279Z,6.94
2023-04-01T10:21:21.594Z,7.13
2023-04-01T10:23:47.907Z,7.39
2023-04-01T10:26:14.222Z,7.63
2023-04-01T10:28:40.550Z,7.75
2023-04-01T10:31:06.853Z,7.96
2023-04-01T10:33:33.181Z,8.13
2023-04-01T10:35:59.506Z,8.43
2023-04-01T10:38:26.915Z,8.54
2023-04-01T10:40:54.477Z,8.68
2023-04-01T10:43:20.790Z,8.66
2023-04-01T10:45:47.090Z,8.65
2023-04-01T10:48:13.425Z,8.60
2023-04-01T10:50:39.738Z,8.69
2023-04-01T10:53:07.237Z,8.41
2023-04-01T10:55:33.884Z,8.51
2023-04-01T10:58:00.474Z,8.65
2023-04-01T11:00:26.798Z,8.77
2023-04-01T11:02:53.216Z,8.92
2023-04-01T11:05:20.916Z,8.95
2023-04-01T11:07:53.023Z,8.87
2023-04-01T11:10:29.351Z,8.97
2023-04-01T11:12:55.674Z,8.92
2023-04-01T11:15:22.054Z,8.84
2023-04-01T11:17:48.454Z,8.96
2023-04-01T11:20:14.804Z,9.02
2023-04-01T11:22:41.189Z,9.02
2023-04-01T11:25:07.488Z,9.09
2023-04-01T11:27:33.812Z,9.18
2023-04-01T11:30:00.899Z,9.36
2023-04-01T11:32:27.372Z,9.39
2023-04-01T11:34:53.712Z,9.42
2023-04-01T11:37:20.032Z,9.59
2023-04-01T11:39:46.360Z,9.58
2023-04-01T11:42:12.681Z,9.48
2023-04-01T11:44:38.983Z,9.48
2023-04-01T11:47:05.298Z,9.57
2023-04-01T11:49:31.609Z,9.76
2023-04-01T11:51:57.928Z,9.65
2023-04-01T11:54:24.251Z,9.79
2023-04-01T11:56:50.580Z,9.84
2023-04-01T11:59:16.927Z,9.92
2023-04-01T12:01:43.244Z,9.88
2023-04-01T12:04:09.770Z,9.84
2023-04-01T12:06:36.173Z,9.79
2023-04-01T12:09:02.481Z,9.90
2023-04-01T12:11:28.812Z,9.79
2023-04-01T12:13:55.120Z,9.72
2023-04-01T12:16:21.451Z,9.84
2023-04-01T12:18:47.797Z,10.05
2023-04-01T12:21:14.106Z,10.26
2023-04-01T12:23:40.423Z,10.35
2023-04-01T12:26:06.739Z,10.38
2023-04-01T12:28:33.067Z,10.31
2023-04-01T12:30:59.408Z,10.15
2023-04-01T12:33:25.720Z,10.19
2023-04-01T12:35:52.088Z,10.31
2023-04-01T12:38:20.291Z,10.62
2023-04-01T12:40:47.873Z,10.75
2023-04-01T12:43:14.188Z,10.93
2023-04-01T12:45:40.546Z,11.05
2023-04-01T12:48:06.895Z,10.90
2023-04-01T12:50:33.215Z,10.91
2023-04-01T12:52:59.530Z,10.98
2023-04-01T12:55:25.840Z,10.96
2023-04-01T12:57:52.153Z,10.94
2023-04-01T13:00:18.457Z,10.93
2023-04-01T13:02:44.851Z,10.88
2023-04-01T13:05:11.184Z,10.91
2023-04-01T13:07:37.496Z,10.81
2023-04-01T13:10:03.841Z,10.94
2023-04-01T13:12:30.179Z,10.85
2023-04-01T13:14:56.487Z,10.95
2023-04-01T13:17:22.820Z,11.00
2023-04-01T13:19:57.993Z,11.15
2023-04-01T13:22:30.960Z,11.31
2023-04-01T13:24:57.278Z,11.55
2023-04-01T13:27:23.597Z,11.48
2023-04-01T13:29:49.961Z,10.98
2023-04-01T13:32:16.281Z,10.88
2023-04-01T13:34:42.570Z,10.77
2023-04-01T13:37:08.870Z,10.38
2023-04-01T13:39:35.181Z,9.46
2023-04-01T13:42:01.495Z,9.50
2023-04-01T13:44:27.788Z,9.66
2023-04-01T13:46:54.128Z,9.63
2023-04-01T13:49:20.511Z,9.82
2023-04-01T13:51:46.837Z,9.96
2023-04-01T13:54:13.149Z,10.04
2023-04-01T13:56:39.473Z,10.27
2023-04-01T13:59:05.796Z,10.54
2023-04-01T14:01:32.201Z,10.43
2023-04-01T14:03:58.584Z,9.72
2023-04-01T14:06:24.943Z,9.85
2023-04-01T14:08:51.256Z,9.89
2023-04-01T14:11:17.595Z,9.88
2023-04-01T14:13:43.913Z,9.63
2023-04-01T14:16:10.264Z,9.38
2023-04-01T14:18:36.620Z,9.37
2023-04-01T14:21:02.938Z,9.34
2023-04-01T14:23:29.247Z,8.99
2023-04-01T14:25:55.552Z,8.83
2023-04-01T14:28:21.863Z,8.83
2023-04-01T14:30:48.169Z,8.73
2023-04-01T14:33:14.534Z,8.60
2023-04-01T14:35:41.022Z,8.57
2023-04-01T14:38:07.378Z,8.39
2023-04-01T14:40:33.676Z,8.53
2023-04-01T14:42:59.978Z,8.63
2023-04-01T14:45:26.292Z,8.87
2023-04-01T14:47:52.670Z,8.99
2023-04-01T14:50:19.064Z,9.21
2023-04-01T14:52:45.393Z,9.28
2023-04-01T14:55:11.701Z,8.96
2023-04-01T14:57:38.151Z,8.99
2023-04-01T15:00:04.467Z,9.01
2023-04-01T15:02:31.045Z,9.09
2023-04-01T15:04:57.407Z,9.02
2023-04-01T15:07:23.769Z,9.14
2023-04-01T15:09:50.073Z,9.28
2023-04-01T15:12:16.402Z,9.30
2023-04-01T15:14:42.725Z,9.36
2023-04-01T15:17:09.017Z,9.46
2023-04-01T15:19:35.321Z,9.49
2023-04-01T15:22:01.663Z,9.47
2023-04-01T15:24:28.040Z,9.20
2023-04-01T15:26:54.345Z,9.36
2023-04-01T15:29:20.636Z,9.45
2023-04-01T15:31:46.952Z,9.65
2023-04-01T15:34:13.298Z,9.75
2023-04-01T15:36:41.463Z,9.84
2023-04-01T15:39:07.991Z,10.12
2023-04-01T15:41:34.316Z,10.39
2023-04-01T15:44:00.638Z,10.45
2023-04-01T15:46:26.991Z,10.49
2023-04-01T15:48:53.324Z,10.63
2023-04-01T15:51:19.641Z,10.49
2023-04-01T15:53:45.942Z,10.41
2023-04-01T15:56:12.253Z,10.38
2023-04-01T15:58:38.568Z,10.36
2023-04-01T16:01:04.896Z,10.01
2023-04-01T16:03:31.296Z,10.05
2023-04-01T16:05:57.655Z,9.85
2023-04-01T16:08:23.966Z,9.79
2023-04-01T16:10:50.276Z,9.75
2023-04-01T16:13:16.570Z,9.97
2023-04-01T16:15:42.886Z,10.06
2023-04-01T16:18:09.216Z,10.07
2023-04-01T16:20:35.774Z,10.09
2023-04-01T16:23:02.153Z,10.12
2023-04-01T16:25:28.474Z,10.13
2023-04-01T16:27:55.922Z,10.06
2023-04-01T16:30:22.805Z,10.05
2023-04-01T16:32:49.131Z,10.09
2023-04-01T16:35:15.455Z,10.21
2023-04-01T16:37:41.762Z,10.44
2023-04-01T16:40:08.096Z,10.53
2023-04-01T16:42:34.430Z,10.50
2023-04-01T16:45:00.757Z,10.53
2023-04-01T16:47:27.157Z,10.54
2023-04-01T16:49:53.507Z,10.41
2023-04-01T16:52:19.823Z,10.19
2023-04-01T16:54:46.152Z,10.19
2023-04-01T16:57:12.499Z,10.14
2023-04-01T16:59:38.847Z,10.09
2023-04-01T17:02:05.166Z,10.13
2023-04-01T17:04:31.533Z,10.16
2023-04-01T17:06:57.897Z,10.28
2023-04-01T17:09:24.212Z,10.28
2023-04-01T17:11:50.558Z,10.22
2023-04-01T17:14:16.908Z,10.25
2023-04-01T17:16:43.237Z,10.11
2023-04-01T17:19:09.582Z,10.09
2023-04-01T17:21:35.902Z,10.04
2023-04-01T17:24:02.239Z,9.98
2023-04-01T17:26:28.628Z,10.04
2023-04-01T17:28:54.982Z,9.97
2023-04-01T17:31:21.403Z,9.97
2023-04-01T17:33:47.721Z,9.92
2023-04-01T17:36:14.025Z,9.79
2023-04-01T17:38:40.345Z,9.83
2023-04-01T17:41:06.657Z,9.61
2023-04-01T17:43:32.962Z,9.60
2023-04-01T17:45:59.271Z,9.36
2023-04-01T17:48:25.586Z,9.22
2023-04-01T17:50:51.887Z,9.23
2023-04-01T17:53:18.201Z,9.10
2023-04-01T17:55:44.520Z,9.15
2023-04-01T17:58:10.837Z,9.05
2023-04-01T18:00:50.644Z,8.99
2023-04-01T18:03:19.775Z,9.00
2023-04-01T18:05:46.188Z,8.91
2023-04-01T18:08:12.525Z,8.96
2023-04-01T18:10:38.831Z,8.91
2023-04-01T18:13:05.160Z,8.86
2023-04-01T18:15:31.493Z,8.81
2023-04-01T18:17:57.871Z,8.90
2023-04-01T18:20:24.265Z,8.91
2023-04-01T18:22:50.567Z,8.77
2023-04-01T18:25:16.869Z,8.83
2023-04-01T18:27:43.190Z,8.62
2023-04-01T18:30:09.480Z,8.53
2023-04-01T18:32:35.878Z,8.59
2023-04-01T18:35:02.252Z,8.43
2023-04-01T18:37:28.545Z,8.49
2023-04-01T18:39:54.870Z,8.47
2023-04-01T18:42:21.169Z,8.44
2023-04-01T18:44:47.469Z,8.33
2023-04-01T18:47:13.773Z,8.33
2023-04-01T18:49:40.064Z,8.37
2023-04-01T18:52:06.382Z,8.34
2023-04-01T18:54:32.697Z,8.48
2023-04-01T18:56:59.025Z,8.40
2023-04-01T18:59:25.350Z,8.44
2023-04-01T19:01:51.670Z,8.34
2023-04-01T19:04:17.977Z,8.28
2023-04-01T19:06:44.296Z,8.21
2023-04-01T19:09:10.660Z,8.23
2023-04-01T19:11:36.985Z,8.15
2023-04-01T19:14:03.308Z,8.25
2023-04-01T19:16:29.613Z,8.31
2023-04-01T19:18:55.919Z,8.28
2023-04-01T19:21:22.261Z,8.25
2023-04-01T19:23:48.582Z,8.13
2023-04-01T19:26:14.916Z,8.27
2023-04-01T19:28:41.237Z,8.17
2023-04-01T19:31:07.585Z,8.13
2023-04-01T19:33:33.936Z,8.11
2023-04-01T19:36:00.297Z,8.10
2023-04-01T19:38:26.615Z,8.12
2023-04-01T19:40:52.932Z,8.16
2023-04-01T19:43:19.247Z,8.16
2023-04-01T19:45:45.556Z,8.17
2023-04-01T19:48:11.879Z,8.14
2023-04-01T19:50:38.200Z,8.11
2023-04-01T19:53:04.529Z,8.06
2023-04-01T19:55:30.856Z,7.88
2023-04-01T19:57:57.157Z,7.85
2023-04-01T20:00:23.677Z,7.86
2023-04-01T20:02:50.279Z,7.81
2023-04-01T20:05:16.765Z,7.92
2023-04-01T20:07:43.089Z,7.80
2023-04-01T20:10:09.406Z,7.79
2023-04-01T20:12:35.723Z,7.76
2023-04-01T20:15:02.044Z,7.85
2023-04-01T20:17:28.352Z,7.75
2023-04-01T20:19:54.663Z,7.76
2023-04-01T20:22:20.958Z,7.77
2023-04-01T20:24:47.282Z,7.69
2023-04-01T20:27:13.589Z,7.71
2023-04-01T20:29:39.922Z,7.82
2023-04-01T20:32:06.307Z,7.75
2023-04-01T20:34:32.686Z,7.81
2023-04-01T20:36:59.027Z,7.71
2023-04-01T20:39:25.343Z,7.71
2023-04-01T20:41:51.665Z,7.77
2023-04-01T20:44:17.975Z,7.72
2023-04-01T20:46:45.292Z,7.68
2023-04-01T20:49:12.553Z,7.68
2023-04-01T20:51:38.875Z,7.54
2023-04-01T20:54:05.194Z,7.54
2023-04-01T20:56:31.491Z,7.47
2023-04-01T20:58:57.818Z,7.52
2023-04-01T21:01:24.222Z,7.47
2023-04-01T21:03:50.568Z,7.49
2023-04-01T21:06:16.895Z,7.50
2023-04-01T21:08:43.199Z,7.48
2023-04-01T21:11:09.518Z,7.44
2023-04-01T21:13:35.838Z,7.46
2023-04-01T21:16:02.225Z,7.36
2023-04-01T21:18:28.551Z,7.47
2023-04-01T21:20:54.879Z,7.48
2023-04-01T21:23:21.200Z,7.42
2023-04-01T21:25:47.506Z,7.47
2023-04-01T21:28:13.807Z,7.46
2023-04-01T21:30:40.130Z,7.39
2023-04-01T21:33:06.464Z,7.40
2023-04-01T21:35:33.066Z,7.38
2023-04-01T21:37:59.659Z,7.46
2023-04-01T21:40:25.971Z,7.44
2023-04-01T21:42:52.306Z,7.44
2023-04-01T21:45:18.605Z,7.44
2023-04-01T21:47:44.958Z,7.41
2023-04-01T21:50:11.295Z,7.26
2023-04-01T21:52:37.611Z,7.33
2023-04-01T21:55:03.910Z,7.27
2023-04-01T21:57:30.356Z,7.25
2023-04-01T21:59:56.749Z,7.30
2023-04-01T22:02:23.158Z,7.32
2023-04-01T22:04:49.474Z,7.35
2023-04-01T22:07:15.785Z,7.23
2023-04-01T22:09:42.093Z,7.23
2023-04-01T22:12:08.414Z,7.38
2023-04-01T22:14:34.717Z,7.15
2023-04-01T22:17:01.034Z,7.03
2023-04-01T22:19:27.362Z,7.06
2023-04-01T22:21:53.720Z,7.02
2023-04-01T22:24:20.024Z,7.03
2023-04-01T22:26:46.332Z,7.02
2023-04-01T22:29:12.628Z,6.97
2023-04-01T22:31:38.958Z,7.04
2023-04-01T22:34:05.358Z,6.91
2023-04-01T22:36:31.648Z,6.94
2023-04-01T22:38:57.971Z,7.02
2023-04-01T22:41:24.270Z,7.03
2023-04-01T22:43:50.566Z,7.00
2023-04-01T22:46:16.918Z,6.96
2023-04-01T22:48:43.308Z,6.97
2023-04-01T22:51:09.624Z,7.02
2023-04-01T22:53:35.932Z,7.08
2023-04-01T22:56:02.264Z,7.18
2023-04-01T22:58:28.566Z,6.96
2023-04-01T23:00:54.913Z,7.00
2023-04-01T23:03:21.221Z,6.94
2023-04-01T23:05:47.520Z,6.98
2023-04-01T23:08:13.817Z,6.99
2023-04-01T23:10:40.114Z,6.88
2023-04-01T23:13:06.453Z,6.90
2023-04-01T23:15:32.971Z,6.84
2023-04-01T23:17:59.487Z,6.83
2023-04-01T23:20:25.861Z,6.76
2023-04-01T23:22:52.181Z,6.82
2023-04-01T23:25:18.490Z,6.78
2023-04-01T23:27:44.796Z,6.72
2023-04-01T23:30:11.101Z,6.81
2023-04-01T23:32:37.475Z,6.71
2023-04-01T23:35:03.826Z,6.65
2023-04-01T23:37:30.145Z,6.66
2023-04-01T23:39:56.466Z,6.74
2023-04-01T23:42:22.782Z,6.85
2023-04-01T23:44:49.082Z,6.73
2023-04-01T23:47:15.412Z,6.99
2023-04-01T23:49:41.731Z,6.97
2023-04-01T23:52:08.033Z,6.83
2023-04-01T23:54:34.372Z,6.78
2023-04-01T23:57:00.734Z,6.83
2023-04-01T23:59:27.072Z,6.76
